Página principal
METAR-TAF:

METAR-TAF

Aeroportos :

Dakhla, Marrocos

latitude: 23-43-05N, longitude: 015-55-55W, altura: 11 m

Observação actual do tempo

O boletim foi feito há 1 hora e 4 minutos, às 13:00 UTC
Vento 7 kt de nor-noroeste
Temperatura 31°C
Humidade 38%
Pressão 1012 hPa
Visibilidade: 3000 m
bruma,

METAR: GMMH 121300Z 34007KT 3000 HZ NSC 31/15 Q1012 REHZ NOSIG

Hora: 14:04 (14:04 UTC)

Previsão

O boletim foi feito há 2 horas e 44 minutos, às 11:20 UTC
Previsão válida de 12 às 12 UTC a 13 às 18 UTC
Vento 10 kt de es-nordeste
Visibilidade: 3000 m
bruma
Tornando-se
de 12 às 18 UTC a 12 às 20 UTC
Visibilidade: 6000 m

TAF: GMMH 121120Z 1212/1318 06010KT 3000 HZ NSC BECMG 1218/1220 6000 NSW

Observações e previsões do tempo de mais de 4000 aeroportos (mensagens METAR e TAF).

As estações disponíveis são os pontos amarelos e vermelhos sobre o mapa.

Mova o rato sobre o mapa para ver o nome da estação.

Depois clique no ponto para visualizar as observações e previsões meteorológicas.

Para alterar o mapa : clique nos botões verdes com uma cruz preta para aumentar o zoom; no botão verde com uma pitada de zoom; ou nas setas verdes para mapas adjacentes.


METAR-TAF: